This is the latest recevied weather packets stored in our database for station/object PP5ABU-13. If no packets are shown the sender has not sent any weather packets the latest 10 day(s).
| Time | Temp. | Humidity | Pressure | Rain* | Wind** | Luminosity | Snow |
|---|---|---|---|---|---|---|---|
| 1777846505 | 17.22° C | 75% | 1020.4 hPa | 0 mm | - | - | - |
| 1777845604 | 17.22° C | 75% | 1020.3 hPa | 0 mm | - | - | - |
| 1777844704 | 17.78° C | 71% | 1020.3 hPa | 0 mm | - | - | - |
| 1777843804 | 17.78° C | 71% | 1020.1 hPa | 0 mm | - | - | - |
| 1777842905 | 17.78° C | 70% | 1020.1 hPa | 0 mm | - | - | - |
| 1777842004 | 18.33° C | 68% | 1020.1 hPa | 0 mm | - | - | - |
| 1777841105 | 20° C | 62% | 1019.9 hPa | 0 mm | - | - | - |
| 1777840204 | 22.22° C | 57% | 1019.8 hPa | 0 mm | - | - | - |
| 1777839304 | 23.33° C | 50% | 1019.6 hPa | 0 mm | - | - | - |
| 1777838404 | 24.44° C | 49% | 1019.5 hPa | 0 mm | - | - | - |
| 1777837504 | 25° C | 45% | 1019.3 hPa | 0 mm | - | - | - |
| 1777836604 | 25.56° C | 40% | 1019.3 hPa | 0 mm | - | - | - |
| 1777835704 | 25.56° C | 38% | 1019.5 hPa | 0 mm | - | - | - |
| 1777834805 | 25° C | 40% | 1019.6 hPa | 0 mm | - | - | - |
| 1777833904 | 25.56° C | 40% | 1019.8 hPa | 0 mm | - | - | - |
| 1777833004 | 25.56° C | 39% | 1019.9 hPa | 0 mm | - | - | - |
| 1777832104 | 25.56° C | 40% | 1019.9 hPa | 0 mm | - | - | - |
| 1777831204 | 25° C | 40% | 1019.9 hPa | 0 mm | - | - | - |
| 1777830305 | 25° C | 41% | 1019.9 hPa | 0 mm | - | - | - |
| 1777829404 | 24.44° C | 42% | 1020.1 hPa | 0 mm | - | - | - |
| 1777828505 | 25° C | 44% | 1020 hPa | 0 mm | - | - | - |
| 1777826704 | 23.33° C | 45% | 1020.3 hPa | 0 mm | - | - | - |
| 1777825804 | 23.33° C | 47% | 1020.5 hPa | 0 mm | - | - | - |
| 1777824904 | 23.33° C | 47% | 1020.8 hPa | 0 mm | - | - | - |
| 1777824004 | 22.78° C | 47% | 1021.3 hPa | 0 mm | - | - | - |
* Rain latest hour (hover to see other rain measurements)
** Current wind speed in m/s (hover to see current wind gust speed)